createdAt,value
2018-11-26T00:00:37.268Z,1003.06
2018-11-26T00:01:37.304Z,1003.07
2018-11-26T00:03:30.410Z,1003.05
2018-11-26T00:04:30.402Z,1003.04
2018-11-26T00:06:23.344Z,1003.01
2018-11-26T00:07:23.331Z,1003.01
2018-11-26T00:09:16.250Z,1002.97
2018-11-26T00:10:16.244Z,1002.95
2018-11-26T00:12:09.168Z,1002.96
2018-11-26T00:13:09.149Z,1002.98
2018-11-26T00:15:02.113Z,1002.94
2018-11-26T00:16:02.096Z,1002.89
2018-11-26T00:17:55.021Z,1002.90
2018-11-26T00:18:55.007Z,1002.93
2018-11-26T00:20:47.955Z,1002.90
2018-11-26T00:21:47.947Z,1002.96
2018-11-26T00:23:40.865Z,1002.93
2018-11-26T00:24:40.852Z,1002.93
2018-11-26T00:26:33.773Z,1002.92
2018-11-26T00:27:33.763Z,1002.94
2018-11-26T00:29:26.725Z,1002.95
2018-11-26T00:30:26.706Z,1002.98
2018-11-26T00:32:19.673Z,1003.00
2018-11-26T00:33:19.655Z,1002.94
2018-11-26T00:35:12.615Z,1002.93
2018-11-26T00:36:12.601Z,1002.90
2018-11-26T00:38:05.572Z,1002.91
2018-11-26T00:39:05.550Z,1002.88
2018-11-26T00:40:58.490Z,1002.87
2018-11-26T00:41:58.474Z,1002.84
2018-11-26T00:43:51.431Z,1002.84
2018-11-26T00:44:51.421Z,1002.88
2018-11-26T00:46:44.517Z,1002.85
2018-11-26T00:47:44.505Z,1002.84
2018-11-26T00:49:37.478Z,1002.83
2018-11-26T00:50:37.458Z,1002.85
2018-11-26T00:52:30.436Z,1002.78
2018-11-26T00:53:30.417Z,1002.79
2018-11-26T00:55:23.345Z,1002.79
2018-11-26T00:56:23.323Z,1002.73
2018-11-26T00:58:16.307Z,1002.74
2018-11-26T00:59:16.299Z,1002.76
2018-11-26T01:01:09.234Z,1002.73
2018-11-26T01:02:09.227Z,1002.72
2018-11-26T01:04:02.166Z,1002.70
2018-11-26T01:05:02.156Z,1002.74
2018-11-26T01:06:55.117Z,1002.70
2018-11-26T01:07:55.102Z,1002.71
2018-11-26T01:09:48.047Z,1002.70
2018-11-26T01:10:48.027Z,1002.72
2018-11-26T01:12:40.981Z,1002.71
2018-11-26T01:13:40.973Z,1002.73
2018-11-26T01:15:33.910Z,1002.71
2018-11-26T01:16:33.901Z,1002.74
2018-11-26T01:18:26.841Z,1002.78
2018-11-26T01:19:26.830Z,1002.77
2018-11-26T01:21:19.800Z,1002.79
2018-11-26T01:22:19.765Z,1002.80
2018-11-26T01:24:12.689Z,1002.79
2018-11-26T01:25:12.678Z,1002.77
2018-11-26T01:27:05.598Z,1002.78
2018-11-26T01:28:05.588Z,1002.75
2018-11-26T01:29:58.513Z,1002.76
2018-11-26T01:30:58.499Z,1002.76
2018-11-26T01:32:51.447Z,1002.76
2018-11-26T01:33:51.413Z,1002.76
2018-11-26T01:35:44.365Z,1002.76
2018-11-26T01:36:44.360Z,1002.79
2018-11-26T01:38:37.320Z,1002.78
2018-11-26T01:39:37.307Z,1002.80
2018-11-26T01:41:30.259Z,1002.75
2018-11-26T01:42:30.242Z,1002.76
2018-11-26T01:44:23.229Z,1002.76
2018-11-26T01:45:23.201Z,1002.78
2018-11-26T01:47:16.119Z,1002.79
2018-11-26T01:48:16.109Z,1002.78
2018-11-26T01:50:09.031Z,1002.78
2018-11-26T01:51:09.025Z,1002.82
2018-11-26T01:53:02.035Z,1002.83
2018-11-26T01:54:02.012Z,1002.85
2018-11-26T01:55:54.967Z,1002.88
2018-11-26T01:56:54.962Z,1002.88
2018-11-26T01:58:47.884Z,1002.90
2018-11-26T01:59:47.869Z,1002.94
2018-11-26T02:01:40.801Z,1002.90
2018-11-26T02:02:40.788Z,1002.91
2018-11-26T02:04:33.778Z,1002.89
2018-11-26T02:05:33.760Z,1002.89
2018-11-26T02:07:26.707Z,1002.86
2018-11-26T02:08:26.699Z,1002.88
2018-11-26T02:10:19.699Z,1002.88
2018-11-26T02:11:19.669Z,1002.86
2018-11-26T02:13:12.641Z,1002.89
2018-11-26T02:14:12.625Z,1002.88
2018-11-26T02:16:05.701Z,1002.89
2018-11-26T02:17:05.553Z,1002.82
2018-11-26T02:18:58.486Z,1002.86
2018-11-26T02:19:58.473Z,1002.83
2018-11-26T02:21:51.943Z,1002.85
2018-11-26T02:22:51.431Z,1002.88
2018-11-26T02:24:44.369Z,1002.87
2018-11-26T02:25:44.356Z,1002.83
2018-11-26T02:27:37.447Z,1002.85
2018-11-26T02:28:37.289Z,1002.87
2018-11-26T02:30:30.227Z,1002.88
2018-11-26T02:31:30.209Z,1002.89
2018-11-26T02:33:23.137Z,1002.91
2018-11-26T02:34:23.131Z,1002.89
2018-11-26T02:36:16.054Z,1002.86
2018-11-26T02:37:16.040Z,1002.88
2018-11-26T02:39:08.981Z,1002.83
2018-11-26T02:40:08.973Z,1002.86
2018-11-26T02:42:01.956Z,1002.82
2018-11-26T02:43:01.923Z,1002.85
2018-11-26T02:44:54.860Z,1002.84
2018-11-26T02:45:54.837Z,1002.85
2018-11-26T02:47:47.779Z,1002.86
2018-11-26T02:48:47.766Z,1002.88
2018-11-26T02:50:40.863Z,1002.86
2018-11-26T02:51:40.701Z,1002.88
2018-11-26T02:53:33.643Z,1002.85
2018-11-26T02:54:33.627Z,1002.87
2018-11-26T02:56:26.591Z,1002.86
2018-11-26T02:57:26.565Z,1002.88
2018-11-26T02:59:19.518Z,1002.87
2018-11-26T03:00:19.509Z,1002.85
2018-11-26T03:02:12.451Z,1002.86
2018-11-26T03:03:12.453Z,1002.89
2018-11-26T03:05:05.399Z,1002.84
2018-11-26T03:06:05.387Z,1002.80
2018-11-26T03:07:58.315Z,1002.84
2018-11-26T03:08:58.298Z,1002.83
2018-11-26T03:10:51.215Z,1002.85
2018-11-26T03:11:51.205Z,1002.82
2018-11-26T03:13:44.199Z,1002.82
2018-11-26T03:14:44.190Z,1002.82
2018-11-26T03:16:37.141Z,1002.82
2018-11-26T03:17:37.133Z,1002.78
2018-11-26T03:19:32.005Z,1002.84
2018-11-26T03:20:31.057Z,1002.81
2018-11-26T03:22:23.971Z,1002.82
2018-11-26T03:23:23.969Z,1002.82
2018-11-26T03:25:16.931Z,1002.77
2018-11-26T03:26:16.897Z,1002.76
2018-11-26T03:28:09.831Z,1002.76
2018-11-26T03:29:09.811Z,1002.79
2018-11-26T03:31:02.753Z,1002.78
2018-11-26T03:32:02.754Z,1002.80
2018-11-26T03:33:55.718Z,1002.81
2018-11-26T03:34:55.686Z,1002.81
2018-11-26T03:36:48.667Z,1002.84
2018-11-26T03:37:48.662Z,1002.88
2018-11-26T03:39:42.613Z,1002.88
2018-11-26T03:40:42.612Z,1002.84
2018-11-26T03:42:35.595Z,1002.90
2018-11-26T03:43:35.578Z,1002.91
2018-11-26T03:45:28.678Z,1002.93
2018-11-26T03:46:28.660Z,1002.95
2018-11-26T03:48:21.619Z,1002.92
2018-11-26T03:49:21.613Z,1002.94
2018-11-26T03:51:14.549Z,1002.95
2018-11-26T03:52:14.536Z,1002.97
2018-11-26T03:54:07.473Z,1002.98
2018-11-26T03:55:07.457Z,1002.97
2018-11-26T03:57:00.416Z,1002.95
2018-11-26T03:58:00.407Z,1002.98
2018-11-26T03:59:53.380Z,1002.99
2018-11-26T04:00:53.326Z,1002.98
2018-11-26T04:02:46.273Z,1003.01
2018-11-26T04:03:46.255Z,1003.01
2018-11-26T04:05:39.181Z,1002.99
2018-11-26T04:06:39.170Z,1003.00
2018-11-26T04:08:32.640Z,1002.98
2018-11-26T04:09:32.080Z,1002.98
2018-11-26T04:11:25.021Z,1002.91
2018-11-26T04:12:25.009Z,1002.96
2018-11-26T04:14:17.953Z,1002.90
2018-11-26T04:15:17.943Z,1002.91
2018-11-26T04:17:10.899Z,1002.92
2018-11-26T04:18:10.879Z,1002.89
2018-11-26T04:20:03.841Z,1002.96
2018-11-26T04:21:03.789Z,1002.95
2018-11-26T04:22:56.753Z,1002.90
2018-11-26T04:23:56.736Z,1002.93
2018-11-26T04:25:49.676Z,1002.92
2018-11-26T04:26:49.679Z,1002.93
2018-11-26T04:28:42.605Z,1002.92
2018-11-26T04:29:42.597Z,1002.95
2018-11-26T04:31:35.612Z,1002.94
2018-11-26T04:32:35.519Z,1002.96
2018-11-26T04:34:28.463Z,1002.97
2018-11-26T04:35:28.445Z,1002.97
2018-11-26T04:37:21.383Z,1002.96
2018-11-26T04:38:21.381Z,1002.94
2018-11-26T04:40:14.486Z,1002.90
2018-11-26T04:41:14.473Z,1002.85
2018-11-26T04:43:07.434Z,1002.84
2018-11-26T04:44:07.422Z,1002.85
2018-11-26T04:46:00.344Z,1002.86
2018-11-26T04:47:00.331Z,1002.82
2018-11-26T04:48:53.272Z,1002.81
2018-11-26T04:49:53.257Z,1002.83
2018-11-26T04:51:46.216Z,1002.79
2018-11-26T04:52:46.200Z,1002.80
2018-11-26T04:54:39.162Z,1002.82
2018-11-26T04:55:39.151Z,1002.82
2018-11-26T04:57:32.681Z,1002.82
2018-11-26T04:58:32.270Z,1002.76
2018-11-26T05:00:25.232Z,1002.77
2018-11-26T05:01:25.217Z,1002.71
2018-11-26T05:03:18.139Z,1002.70
2018-11-26T05:04:18.126Z,1002.69
2018-11-26T05:06:11.076Z,1002.72
2018-11-26T05:07:11.198Z,1002.71
2018-11-26T05:09:04.006Z,1002.72
2018-11-26T05:10:03.994Z,1002.70
2018-11-26T05:11:56.978Z,1002.75
2018-11-26T05:12:56.942Z,1002.77
2018-11-26T05:14:49.866Z,1002.77
2018-11-26T05:15:49.850Z,1002.77
2018-11-26T05:17:42.794Z,1002.75
2018-11-26T05:18:42.782Z,1002.73
2018-11-26T05:20:35.744Z,1002.74
2018-11-26T05:21:35.730Z,1002.71
2018-11-26T05:23:28.693Z,1002.68
2018-11-26T05:24:28.681Z,1002.72
2018-11-26T05:26:21.631Z,1002.71
2018-11-26T05:27:21.613Z,1002.68
2018-11-26T05:29:14.564Z,1002.70
2018-11-26T05:30:14.540Z,1002.69
2018-11-26T05:32:07.461Z,1002.70
2018-11-26T05:33:07.450Z,1002.67
2018-11-26T05:35:00.421Z,1002.71
2018-11-26T05:36:00.412Z,1002.74
2018-11-26T05:37:53.363Z,1002.72
2018-11-26T05:38:53.358Z,1002.70
2018-11-26T05:40:46.275Z,1002.70
2018-11-26T05:41:46.267Z,1002.71
2018-11-26T05:43:39.217Z,1002.66
2018-11-26T05:44:39.200Z,1002.70
2018-11-26T05:46:32.149Z,1002.69
2018-11-26T05:47:32.139Z,1002.74
2018-11-26T05:49:25.092Z,1002.68
2018-11-26T05:50:25.085Z,1002.68
2018-11-26T05:52:18.020Z,1002.67
2018-11-26T05:53:18.008Z,1002.68
2018-11-26T05:55:10.966Z,1002.69
2018-11-26T05:56:10.952Z,1002.69
2018-11-26T05:58:03.968Z,1002.69
2018-11-26T05:59:03.914Z,1002.73
2018-11-26T06:00:56.838Z,1002.75
2018-11-26T06:01:56.818Z,1002.75
2018-11-26T06:03:49.779Z,1002.76
2018-11-26T06:04:49.769Z,1002.77
2018-11-26T06:06:42.689Z,1002.75
2018-11-26T06:07:42.681Z,1002.78
2018-11-26T06:09:35.627Z,1002.72
2018-11-26T06:10:35.606Z,1002.73
2018-11-26T06:12:28.533Z,1002.71
2018-11-26T06:13:28.530Z,1002.76
2018-11-26T06:15:21.477Z,1002.73
2018-11-26T06:16:21.468Z,1002.74
2018-11-26T06:18:14.613Z,1002.78
2018-11-26T06:19:14.613Z,1002.80
2018-11-26T06:21:07.540Z,1002.78
2018-11-26T06:22:07.526Z,1002.75
2018-11-26T06:24:00.450Z,1002.78
2018-11-26T06:25:00.430Z,1002.77
2018-11-26T06:26:53.396Z,1002.87
2018-11-26T06:27:53.380Z,1002.80
2018-11-26T06:29:46.350Z,1002.87
2018-11-26T06:30:46.339Z,1002.84
2018-11-26T06:32:39.292Z,1002.89
2018-11-26T06:33:39.285Z,1002.93
2018-11-26T06:35:32.236Z,1002.95
2018-11-26T06:36:32.222Z,1003.00
2018-11-26T06:38:25.165Z,1002.97
2018-11-26T06:39:25.153Z,1003.02
2018-11-26T06:41:18.107Z,1003.03
2018-11-26T06:42:18.079Z,1003.03
2018-11-26T06:44:11.029Z,1003.10
2018-11-26T06:45:11.009Z,1003.13
2018-11-26T06:47:03.995Z,1003.18
2018-11-26T06:48:03.953Z,1003.20
2018-11-26T06:49:56.879Z,1003.22
2018-11-26T06:50:56.868Z,1003.25
2018-11-26T06:52:49.808Z,1003.26
2018-11-26T06:53:49.773Z,1003.28
2018-11-26T06:55:42.696Z,1003.31
2018-11-26T06:56:42.685Z,1003.32
2018-11-26T06:58:35.635Z,1003.33
2018-11-26T06:59:35.640Z,1003.36
2018-11-26T07:01:28.558Z,1003.33
2018-11-26T07:02:28.550Z,1003.34
2018-11-26T07:04:21.501Z,1003.31
2018-11-26T07:05:21.501Z,1003.33
2018-11-26T07:07:14.432Z,1003.35
2018-11-26T07:08:14.425Z,1003.35
2018-11-26T07:10:07.397Z,1003.37
2018-11-26T07:11:07.373Z,1003.36
2018-11-26T07:13:00.457Z,1003.39
2018-11-26T07:14:00.454Z,1003.42
2018-11-26T07:15:53.388Z,1003.40
2018-11-26T07:16:53.377Z,1003.41
2018-11-26T07:18:46.340Z,1003.40
2018-11-26T07:19:46.333Z,1003.41
2018-11-26T07:21:39.319Z,1003.42
2018-11-26T07:22:39.314Z,1003.42
2018-11-26T07:24:32.254Z,1003.42
2018-11-26T07:25:32.239Z,1003.40
2018-11-26T07:27:25.169Z,1003.49
2018-11-26T07:28:25.155Z,1003.46
2018-11-26T07:30:18.085Z,1003.48
2018-11-26T07:31:18.065Z,1003.50
2018-11-26T07:33:10.994Z,1003.47
2018-11-26T07:34:10.970Z,1003.51
2018-11-26T07:36:07.144Z,1003.50
2018-11-26T07:37:03.925Z,1003.51
2018-11-26T07:38:56.861Z,1003.53
2018-11-26T07:39:56.851Z,1003.50
2018-11-26T07:41:49.840Z,1003.57
2018-11-26T07:42:49.843Z,1003.59
2018-11-26T07:44:42.782Z,1003.59
2018-11-26T07:45:42.763Z,1003.61
2018-11-26T07:47:35.717Z,1003.64
2018-11-26T07:48:35.708Z,1003.65
2018-11-26T07:50:28.662Z,1003.64
2018-11-26T07:51:28.643Z,1003.62
2018-11-26T07:53:21.565Z,1003.66
2018-11-26T07:54:21.543Z,1003.67
2018-11-26T07:56:14.648Z,1003.77
2018-11-26T07:57:14.656Z,1003.76
2018-11-26T07:59:07.581Z,1003.74
2018-11-26T08:00:07.566Z,1003.79
2018-11-26T08:02:00.487Z,1003.76
2018-11-26T08:03:00.477Z,1003.79
2018-11-26T08:04:53.467Z,1003.80
2018-11-26T08:05:53.377Z,1003.81
2018-11-26T08:07:46.337Z,1003.83
2018-11-26T08:08:46.325Z,1003.86
2018-11-26T08:10:39.295Z,1003.87
2018-11-26T08:11:39.285Z,1003.86
2018-11-26T08:13:32.249Z,1003.85
2018-11-26T08:14:32.235Z,1003.91
2018-11-26T08:16:25.157Z,1003.96
2018-11-26T08:17:25.141Z,1003.98
2018-11-26T08:19:18.065Z,1003.95
2018-11-26T08:20:18.048Z,1003.98
2018-11-26T08:22:11.023Z,1004.00
2018-11-26T08:23:11.004Z,1003.99
2018-11-26T08:25:03.970Z,1004.02
2018-11-26T08:26:03.964Z,1004.03
2018-11-26T08:27:56.938Z,1004.02
2018-11-26T08:28:56.880Z,1004.01
2018-11-26T08:30:49.826Z,1004.04
2018-11-26T08:31:49.798Z,1004.04
2018-11-26T08:33:42.758Z,1004.10
2018-11-26T08:34:42.751Z,1004.10
2018-11-26T08:36:35.713Z,1004.11
2018-11-26T08:37:35.690Z,1004.08
2018-11-26T08:39:28.670Z,1004.14
2018-11-26T08:40:28.667Z,1004.14
2018-11-26T08:42:21.628Z,1004.18
2018-11-26T08:43:21.574Z,1004.17
2018-11-26T08:45:14.530Z,1004.21
2018-11-26T08:46:14.514Z,1004.23
2018-11-26T08:48:07.456Z,1004.24
2018-11-26T08:49:07.448Z,1004.26
2018-11-26T08:51:00.618Z,1004.27
2018-11-26T08:52:00.604Z,1004.32
2018-11-26T08:53:53.540Z,1004.33
2018-11-26T08:54:53.523Z,1004.36
2018-11-26T08:56:46.989Z,1004.34
2018-11-26T08:57:46.531Z,1004.34
2018-11-26T08:59:39.428Z,1004.34
2018-11-26T09:00:39.426Z,1004.36
2018-11-26T09:02:32.368Z,1004.37
2018-11-26T09:03:32.354Z,1004.38
2018-11-26T09:05:25.307Z,1004.38
2018-11-26T09:06:25.304Z,1004.42
2018-11-26T09:08:18.230Z,1004.43
2018-11-26T09:09:18.226Z,1004.47
2018-11-26T09:11:11.196Z,1004.43
2018-11-26T09:12:11.173Z,1004.47
2018-11-26T09:14:04.120Z,1004.50
2018-11-26T09:15:04.111Z,1004.48
2018-11-26T09:16:57.047Z,1004.52
2018-11-26T09:17:57.038Z,1004.54
2018-11-26T09:19:50.005Z,1004.59
2018-11-26T09:20:49.995Z,1004.68
2018-11-26T09:22:42.968Z,1004.71
2018-11-26T09:23:42.924Z,1004.70
2018-11-26T09:25:35.885Z,1004.75
2018-11-26T09:26:35.864Z,1004.79
2018-11-26T09:28:28.818Z,1004.83
2018-11-26T09:29:28.804Z,1004.86
2018-11-26T09:31:21.752Z,1004.88
2018-11-26T09:32:21.742Z,1004.87
2018-11-26T09:34:14.767Z,1004.92
2018-11-26T09:35:14.752Z,1004.95
2018-11-26T09:37:07.683Z,1004.94
2018-11-26T09:38:07.672Z,1004.94
2018-11-26T09:40:00.638Z,1004.89
2018-11-26T09:41:00.622Z,1004.87
2018-11-26T09:42:53.584Z,1004.87
2018-11-26T09:43:53.570Z,1004.84
2018-11-26T09:45:46.500Z,1004.88
2018-11-26T09:46:46.479Z,1004.89
2018-11-26T09:48:39.937Z,1004.86
2018-11-26T09:49:39.421Z,1004.88
2018-11-26T09:51:32.366Z,1004.88
2018-11-26T09:52:32.417Z,1004.86
2018-11-26T09:54:26.112Z,1004.88
2018-11-26T09:55:25.324Z,1004.89
2018-11-26T09:57:18.276Z,1004.90
2018-11-26T09:58:18.270Z,1004.86
2018-11-26T10:00:11.200Z,1004.90
2018-11-26T10:01:11.193Z,1004.92
2018-11-26T10:03:04.139Z,1004.87
2018-11-26T10:04:04.125Z,1004.88
2018-11-26T10:05:57.083Z,1004.91
2018-11-26T10:06:57.075Z,1004.92
2018-11-26T10:07:57.122Z,1004.92
2018-11-26T10:08:57.075Z,1004.94
2018-11-26T10:09:57.077Z,1004.90
2018-11-26T10:10:57.095Z,1004.90
2018-11-26T10:11:57.086Z,1004.95
2018-11-26T10:12:57.091Z,1004.92
2018-11-26T10:13:57.096Z,1004.94
2018-11-26T10:14:57.103Z,1005.00
2018-11-26T10:15:57.093Z,1004.94
2018-11-26T10:16:57.109Z,1004.92
2018-11-26T10:17:57.103Z,1004.96
2018-11-26T10:18:57.118Z,1004.94
2018-11-26T10:19:57.115Z,1004.91
2018-11-26T10:20:57.129Z,1004.92
2018-11-26T10:21:57.133Z,1004.94
2018-11-26T10:22:57.129Z,1004.95
2018-11-26T10:23:57.145Z,1005.00
2018-11-26T10:24:57.139Z,1004.98
2018-11-26T10:25:57.142Z,1004.96
2018-11-26T10:26:57.151Z,1004.97
2018-11-26T10:27:57.147Z,1004.95
2018-11-26T10:28:57.155Z,1004.93
2018-11-26T10:29:57.151Z,1004.98
2018-11-26T10:30:57.180Z,1004.93
2018-11-26T10:31:57.154Z,1004.91
2018-11-26T10:32:57.178Z,1004.88
2018-11-26T10:33:57.166Z,1004.94
2018-11-26T10:34:57.180Z,1004.88
2018-11-26T10:35:57.176Z,1004.85
2018-11-26T10:36:57.184Z,1004.87
2018-11-26T10:37:57.197Z,1004.89
2018-11-26T10:38:57.194Z,1004.87
2018-11-26T10:39:57.197Z,1004.92
2018-11-26T10:40:57.203Z,1004.88
2018-11-26T10:41:58.013Z,1004.92
2018-11-26T10:42:57.208Z,1004.92
2018-11-26T10:43:57.225Z,1004.91
2018-11-26T10:44:57.217Z,1004.89
2018-11-26T10:45:57.221Z,1004.86
2018-11-26T10:46:57.225Z,1004.91
2018-11-26T10:47:57.225Z,1004.88
2018-11-26T10:48:57.231Z,1004.89
2018-11-26T10:49:57.237Z,1004.92
2018-11-26T10:50:57.239Z,1004.88
2018-11-26T10:51:57.249Z,1004.90
2018-11-26T10:52:57.251Z,1004.87
2018-11-26T10:53:57.261Z,1004.89
2018-11-26T10:54:57.259Z,1004.89
2018-11-26T10:55:57.265Z,1004.89
2018-11-26T10:56:57.263Z,1004.93
2018-11-26T10:57:57.265Z,1004.89
2018-11-26T10:58:57.269Z,1004.94
2018-11-26T10:59:57.277Z,1004.98
2018-11-26T11:00:57.275Z,1004.95
2018-11-26T11:01:57.387Z,1004.97
2018-11-26T11:02:57.288Z,1004.97
2018-11-26T11:03:57.289Z,1004.99
2018-11-26T11:04:57.288Z,1004.99
2018-11-26T11:05:57.315Z,1004.94
2018-11-26T11:06:57.298Z,1004.98
2018-11-26T11:07:57.304Z,1004.99
2018-11-26T11:08:57.316Z,1004.96
2018-11-26T11:09:57.333Z,1004.95
2018-11-26T11:10:57.320Z,1004.96
2018-11-26T11:11:57.334Z,1004.93
2018-11-26T11:12:57.326Z,1004.92
2018-11-26T11:13:57.325Z,1004.97
2018-11-26T11:14:57.331Z,1004.99
2018-11-26T11:15:57.347Z,1005.02
2018-11-26T11:16:57.334Z,1005.00
2018-11-26T11:17:57.346Z,1005.00
2018-11-26T11:18:57.348Z,1005.02
2018-11-26T11:19:57.456Z,1005.03
2018-11-26T11:20:57.356Z,1004.99
2018-11-26T11:21:57.350Z,1005.05
2018-11-26T11:22:57.360Z,1005.11
2018-11-26T11:23:57.376Z,1005.07
2018-11-26T11:24:57.366Z,1005.08
2018-11-26T11:25:57.380Z,1005.14
2018-11-26T11:26:57.370Z,1005.11
2018-11-26T11:27:57.422Z,1005.16
2018-11-26T11:28:57.387Z,1005.16
2018-11-26T11:29:58.034Z,1005.15
2018-11-26T11:30:57.390Z,1005.16
2018-11-26T11:31:57.398Z,1005.14
2018-11-26T11:32:57.403Z,1005.14
2018-11-26T11:33:57.407Z,1005.13
2018-11-26T11:34:57.406Z,1005.12
2018-11-26T11:35:57.418Z,1005.13
2018-11-26T11:36:57.410Z,1005.14
2018-11-26T11:37:57.459Z,1005.16
2018-11-26T11:38:57.420Z,1005.10
2018-11-26T11:39:57.435Z,1005.08
2018-11-26T11:40:57.431Z,1005.11
2018-11-26T11:41:57.445Z,1005.15
2018-11-26T11:42:57.435Z,1005.15
2018-11-26T11:43:57.460Z,1005.12
2018-11-26T11:44:57.438Z,1005.13
2018-11-26T11:45:57.452Z,1005.14
2018-11-26T11:46:57.450Z,1005.12
2018-11-26T11:47:57.464Z,1005.11
2018-11-26T11:48:57.456Z,1005.09
2018-11-26T11:49:57.462Z,1005.09
2018-11-26T11:50:57.462Z,1005.10
2018-11-26T11:51:57.469Z,1005.07
2018-11-26T11:52:57.470Z,1005.10
2018-11-26T11:53:57.468Z,1005.06
2018-11-26T11:54:57.479Z,1005.05
2018-11-26T11:55:57.471Z,1005.04
2018-11-26T11:56:57.485Z,1005.04
2018-11-26T11:57:57.488Z,1005.02
2018-11-26T11:58:57.494Z,1005.02
2018-11-26T11:59:57.501Z,1005.04
2018-11-26T12:00:57.500Z,1005.05
2018-11-26T12:01:57.509Z,1004.99
2018-11-26T12:02:57.509Z,1004.98
2018-11-26T12:03:57.520Z,1005.00
2018-11-26T12:04:57.512Z,1004.99
2018-11-26T12:05:57.522Z,1004.99
2018-11-26T12:06:57.518Z,1005.00
2018-11-26T12:07:57.561Z,1004.97
2018-11-26T12:08:57.537Z,1004.99
2018-11-26T12:09:57.532Z,1005.02
2018-11-26T12:10:57.538Z,1005.01
2018-11-26T12:11:57.542Z,1005.00
2018-11-26T12:12:57.546Z,1005.00
2018-11-26T12:13:57.556Z,1005.00
2018-11-26T12:14:57.548Z,1005.01
2018-11-26T12:15:57.578Z,1005.01
2018-11-26T12:16:57.565Z,1004.99
2018-11-26T12:17:57.569Z,1004.99
2018-11-26T12:18:57.568Z,1004.99
2018-11-26T12:19:57.574Z,1005.00
2018-11-26T12:20:57.574Z,1005.01
2018-11-26T12:21:57.575Z,1005.01
2018-11-26T12:22:57.589Z,1005.02
2018-11-26T12:23:57.587Z,1005.03
2018-11-26T12:24:57.589Z,1005.03
2018-11-26T12:25:57.592Z,1005.04
2018-11-26T12:26:57.602Z,1005.03
2018-11-26T12:27:57.599Z,1005.04
2018-11-26T12:28:57.604Z,1005.01
2018-11-26T12:29:57.611Z,1005.04
2018-11-26T12:30:57.634Z,1005.03
2018-11-26T12:31:57.616Z,1005.04
2018-11-26T12:32:57.625Z,1005.04
2018-11-26T12:33:57.625Z,1005.03
2018-11-26T12:34:57.628Z,1005.02
2018-11-26T12:35:57.630Z,1005.01
2018-11-26T12:36:57.866Z,1004.94
2018-11-26T12:37:57.648Z,1004.96
2018-11-26T12:38:57.735Z,1004.97
2018-11-26T12:39:57.650Z,1004.96
2018-11-26T12:40:57.651Z,1004.99
2018-11-26T12:41:57.656Z,1005.01
2018-11-26T12:42:57.658Z,1004.97
2018-11-26T12:43:57.660Z,1004.96
2018-11-26T12:44:57.670Z,1005.00
2018-11-26T12:45:57.676Z,1005.00
2018-11-26T12:46:57.676Z,1004.99
2018-11-26T12:47:57.684Z,1005.04
2018-11-26T12:48:57.692Z,1005.02
2018-11-26T12:49:57.688Z,1005.03
2018-11-26T12:50:57.694Z,1005.01
2018-11-26T12:51:57.702Z,1005.04
2018-11-26T12:52:57.703Z,1005.02
2018-11-26T12:53:57.708Z,1005.00
2018-11-26T12:54:57.712Z,1005.01
2018-11-26T12:55:57.712Z,1005.02
2018-11-26T12:56:57.720Z,1005.02
2018-11-26T12:57:57.722Z,1005.03
2018-11-26T12:58:57.726Z,1005.00
2018-11-26T12:59:57.735Z,1005.00
2018-11-26T13:00:57.737Z,1004.99
2018-11-26T13:01:57.738Z,1005.01
2018-11-26T13:02:57.742Z,1005.00
2018-11-26T13:03:57.746Z,1005.01
2018-11-26T13:04:57.744Z,1005.02
2018-11-26T13:05:57.752Z,1005.05
2018-11-26T13:06:57.753Z,1005.02
2018-11-26T13:07:57.762Z,1005.01
2018-11-26T13:08:57.763Z,1004.98
2018-11-26T13:09:57.774Z,1005.00
2018-11-26T13:10:57.775Z,1005.00
2018-11-26T13:11:57.773Z,1005.03
2018-11-26T13:12:57.786Z,1005.03
2018-11-26T13:13:57.782Z,1005.03
2018-11-26T13:14:57.798Z,1004.99
2018-11-26T13:15:57.793Z,1004.99
2018-11-26T13:16:57.796Z,1004.96
2018-11-26T13:17:57.804Z,1004.97
2018-11-26T13:18:57.811Z,1004.94
2018-11-26T13:19:57.809Z,1004.95
2018-11-26T13:20:57.813Z,1004.94
2018-11-26T13:21:57.816Z,1004.96
2018-11-26T13:22:57.830Z,1004.96
2018-11-26T13:23:57.827Z,1004.93
2018-11-26T13:24:57.833Z,1004.92
2018-11-26T13:25:57.829Z,1004.91
2018-11-26T13:26:57.857Z,1004.91
2018-11-26T13:27:57.853Z,1004.90
2018-11-26T13:28:57.841Z,1004.91
2018-11-26T13:29:57.852Z,1004.90
2018-11-26T13:30:57.849Z,1004.92
2018-11-26T13:31:57.858Z,1004.95
2018-11-26T13:32:57.857Z,1004.93
2018-11-26T13:33:57.865Z,1004.93
2018-11-26T13:34:57.857Z,1004.93
2018-11-26T13:35:57.869Z,1004.94
2018-11-26T13:36:57.869Z,1004.94
2018-11-26T13:37:58.094Z,1004.97
2018-11-26T13:38:57.881Z,1004.98
2018-11-26T13:39:57.886Z,1005.08
2018-11-26T13:40:57.889Z,1005.07
2018-11-26T13:41:57.892Z,1005.08
2018-11-26T13:42:57.885Z,1005.02
2018-11-26T13:43:57.895Z,1005.05
2018-11-26T13:44:57.997Z,1005.07
2018-11-26T13:45:57.903Z,1005.09
2018-11-26T13:46:57.907Z,1005.06
2018-11-26T13:47:57.918Z,1005.09
2018-11-26T13:48:58.220Z,1005.11
2018-11-26T13:49:57.928Z,1005.12
2018-11-26T13:50:57.978Z,1005.16
2018-11-26T13:51:57.929Z,1005.15
2018-11-26T13:52:57.951Z,1005.15
2018-11-26T13:53:57.943Z,1005.16
2018-11-26T13:54:58.073Z,1005.15
2018-11-26T13:55:57.942Z,1005.17
2018-11-26T13:56:57.949Z,1005.19
2018-11-26T13:57:58.817Z,1005.19
2018-11-26T13:58:58.077Z,1005.18
2018-11-26T13:59:57.964Z,1005.20
2018-11-26T14:00:57.981Z,1005.20
2018-11-26T14:01:57.969Z,1005.17
2018-11-26T14:02:57.982Z,1005.18
2018-11-26T14:03:57.970Z,1005.21
2018-11-26T14:04:57.977Z,1005.20
2018-11-26T14:05:57.979Z,1005.24
2018-11-26T14:06:58.011Z,1005.19
2018-11-26T14:07:57.987Z,1005.25
2018-11-26T14:08:57.994Z,1005.21
2018-11-26T14:09:58.955Z,1005.21
2018-11-26T14:10:58.002Z,1005.24
2018-11-26T14:11:58.006Z,1005.24
2018-11-26T14:12:58.051Z,1005.23
2018-11-26T14:13:58.014Z,1005.25
2018-11-26T14:14:58.020Z,1005.22
2018-11-26T14:15:58.973Z,1005.24
2018-11-26T14:16:58.023Z,1005.26
2018-11-26T14:17:58.023Z,1005.29
2018-11-26T14:18:58.027Z,1005.30
2018-11-26T14:19:58.042Z,1005.29
2018-11-26T14:20:58.131Z,1005.28
2018-11-26T14:21:58.047Z,1005.30
2018-11-26T14:22:58.063Z,1005.30
2018-11-26T14:23:58.051Z,1005.29
2018-11-26T14:24:58.064Z,1005.31
2018-11-26T14:25:58.060Z,1005.30
2018-11-26T14:26:58.073Z,1005.29
2018-11-26T14:27:58.067Z,1005.33
2018-11-26T14:28:58.085Z,1005.32
2018-11-26T14:29:58.075Z,1005.32
2018-11-26T14:30:58.089Z,1005.33
2018-11-26T14:31:58.085Z,1005.35
2018-11-26T14:32:58.087Z,1005.35
2018-11-26T14:33:58.100Z,1005.33
2018-11-26T14:34:58.099Z,1005.39
2018-11-26T14:35:58.101Z,1005.36
2018-11-26T14:36:58.119Z,1005.44
2018-11-26T14:37:58.109Z,1005.44
2018-11-26T14:38:58.113Z,1005.40
2018-11-26T14:39:58.113Z,1005.39
2018-11-26T14:40:58.119Z,1005.41
2018-11-26T14:41:58.131Z,1005.45
2018-11-26T14:42:58.128Z,1005.46
2018-11-26T14:43:58.131Z,1005.43
2018-11-26T14:44:58.135Z,1005.44
2018-11-26T14:45:58.139Z,1005.42
2018-11-26T14:46:58.147Z,1005.44
2018-11-26T14:47:58.147Z,1005.43
2018-11-26T14:48:58.151Z,1005.43
2018-11-26T14:49:58.159Z,1005.45
2018-11-26T14:50:58.161Z,1005.51
2018-11-26T14:51:58.161Z,1005.46
2018-11-26T14:52:58.169Z,1005.45
2018-11-26T14:53:58.173Z,1005.47
2018-11-26T14:54:58.173Z,1005.53
2018-11-26T14:55:58.183Z,1005.50
2018-11-26T14:56:58.181Z,1005.50
2018-11-26T14:57:58.186Z,1005.51
2018-11-26T14:58:58.207Z,1005.53
2018-11-26T14:59:58.205Z,1005.51
2018-11-26T15:00:58.199Z,1005.50
2018-11-26T15:01:58.263Z,1005.49
2018-11-26T15:02:58.199Z,1005.52
2018-11-26T15:03:58.221Z,1005.56
2018-11-26T15:04:58.217Z,1005.53
2018-11-26T15:05:58.221Z,1005.55
2018-11-26T15:06:58.226Z,1005.55
2018-11-26T15:07:58.227Z,1005.58
2018-11-26T15:08:58.237Z,1005.58
2018-11-26T15:09:58.237Z,1005.59
2018-11-26T15:10:58.241Z,1005.61